Time;durP1;ratioP1;P1;durP2;ratioP2;P2;SDS_P1;SDS_P2;PMS_P1;PMS_P2;Temp;Humidity;BMP_temperature;BMP_pressure;BME280_temperature;BME280_humidity;BME280_pressure;Samples;Min_cycle;Max_cycle;Signal;HPM_P1;HPM_P2
2023/07/14 00:01:21;;;;;;;;;;;;;;;23.12;42.28;101454.09;4181426;28;19952;-61
2023/07/14 00:03:22;;;;;;;;;;;;;;;23.13;42.55;101461.19;4165250;28;19979;-61
2023/07/14 00:05:29;;;;;;;;;;;;;;;23.13;42.39;101459.34;4164895;28;19932;-61
2023/07/14 00:07:31;;;;;;;;;;;;;;;23.12;42.40;101454.09;4165148;28;19921;-61
2023/07/14 00:09:32;;;;;;;;;;;;;;;23.12;42.28;101452.28;4164190;28;19925;-61
2023/07/14 00:11:34;;;;;;;;;;;;;;;23.10;42.56;101451.53;4164692;28;19944;-61
2023/07/14 00:13:35;;;;;;;;;;;;;;;23.09;42.60;101440.94;4164847;28;19939;-61
2023/07/14 00:15:39;;;;;;;;;;;;;;;23.06;42.71;101443.84;4164685;28;19940;-60
2023/07/14 00:17:41;;;;;;;;;;;;;;;23.04;42.36;101435.94;4164085;28;19924;-60
2023/07/14 00:19:42;;;;;;;;;;;;;;;23.05;42.48;101437.63;4146468;28;19925;-60
2023/07/14 00:21:44;;;;;;;;;;;;;;;23.05;42.50;101434.09;4164836;28;19928;-61
2023/07/14 00:23:46;;;;;;;;;;;;;;;23.03;42.40;101431.53;4164958;28;20409;-60
2023/07/14 00:25:47;;;;;;;;;;;;;;;23.01;42.45;101433.47;4164760;28;19921;-61
2023/07/14 00:27:50;;;;;;;;;;;;;;;23.01;42.52;101435.31;4164599;28;20372;-60
2023/07/14 00:29:52;;;;;;;;;;;;;;;23.00;42.66;101433.59;4163517;28;19933;-59
2023/07/14 00:31:55;;;;;;;;;;;;;;;23.00;42.49;101428.22;4164397;28;20340;-60
2023/07/14 00:33:57;;;;;;;;;;;;;;;22.99;42.54;101432.75;4164692;28;19921;-60
2023/07/14 00:35:58;;;;;;;;;;;;;;;22.97;42.87;101429.31;4164686;28;20116;-60
2023/07/14 00:38:00;;;;;;;;;;;;;;;22.97;42.79;101429.31;4167438;28;19972;-59
2023/07/14 00:40:03;;;;;;;;;;;;;;;22.96;42.69;101432.97;4180165;28;20003;-61
2023/07/14 00:42:07;;;;;;;;;;;;;;;22.95;42.63;101426.75;4163436;28;20011;-60
2023/07/14 00:44:15;;;;;;;;;;;;;;;22.95;42.69;101433.94;4180517;28;19948;-61
2023/07/14 00:46:23;;;;;;;;;;;;;;;22.94;42.58;101426.88;4181032;28;19921;-60
2023/07/14 00:48:26;;;;;;;;;;;;;;;22.94;42.50;101429.53;4180262;28;19920;-61
2023/07/14 00:50:33;;;;;;;;;;;;;;;22.93;43.01;101425.16;4180788;28;19927;-60
2023/07/14 00:52:36;;;;;;;;;;;;;;;22.93;42.92;101411.75;4180773;28;19960;-60
2023/07/14 00:54:41;;;;;;;;;;;;;;;22.93;43.04;101411.75;4163234;28;19928;-60
2023/07/14 00:56:44;;;;;;;;;;;;;;;22.90;42.85;101412.81;4180766;28;19947;-61
2023/07/14 00:58:49;;;;;;;;;;;;;;;22.89;42.84;101411.16;4179605;28;19920;-60
2023/07/14 01:01:03;;;;;;;;;;;;;;;22.90;42.99;101412.81;4180490;28;19927;-61
2023/07/14 01:03:04;;;;;;;;;;;;;;;22.88;42.98;101411.25;4149281;28;19927;-60
2023/07/14 01:05:07;;;;;;;;;;;;;;;22.88;42.97;101400.50;4147994;28;19921;-60
2023/07/14 01:07:10;;;;;;;;;;;;;;;22.86;42.99;101397.97;4147591;28;19921;-60
2023/07/14 01:09:12;;;;;;;;;;;;;;;22.86;42.99;101399.81;4146780;28;19921;-61
2023/07/14 01:11:16;;;;;;;;;;;;;;;22.86;43.10;101392.59;4147646;28;19921;-60
2023/07/14 01:13:18;;;;;;;;;;;;;;;22.85;43.19;101392.72;4147080;28;19922;-60
2023/07/14 01:15:19;;;;;;;;;;;;;;;22.84;42.68;101394.53;4147776;28;20316;-60
2023/07/14 01:17:21;;;;;;;;;;;;;;;22.83;42.95;101392.81;4147756;28;19951;-60
2023/07/14 01:19:52;;;;;;;;;;;;;;;22.84;43.11;101391.84;4146704;28;19944;-61
2023/07/14 01:22:00;;;;;;;;;;;;;;;22.84;43.10;101388.31;4142926;28;20012;-61
2023/07/14 01:24:10;;;;;;;;;;;;;;;22.82;43.00;101388.44;4147918;28;20403;-61
2023/07/14 01:26:23;;;;;;;;;;;;;;;22.81;43.14;101394.78;4147606;28;19956;-60
2023/07/14 01:28:25;;;;;;;;;;;;;;;22.80;43.37;101387.72;4146839;28;19921;-61
2023/07/14 01:30:26;;;;;;;;;;;;;;;22.80;43.05;101388.53;4146681;28;20350;-60
2023/07/14 01:32:34;;;;;;;;;;;;;;;22.81;42.98;101386.75;4147389;28;20403;-60
2023/07/14 01:34:37;;;;;;;;;;;;;;;22.75;43.32;101371.13;4147607;28;19927;-61
2023/07/14 01:36:39;;;;;;;;;;;;;;;22.75;43.59;101371.13;4147740;28;19928;-60
2023/07/14 01:38:41;;;;;;;;;;;;;;;22.72;43.50;101369.50;4164099;28;19921;-60
2023/07/14 01:40:46;;;;;;;;;;;;;;;22.72;43.31;101371.34;4180039;28;20299;-60
2023/07/14 01:43:00;;;;;;;;;;;;;;;22.73;43.42;101368.53;4179759;28;19920;-60
2023/07/14 01:45:01;;;;;;;;;;;;;;;22.73;43.21;101365.84;4180340;28;19921;-60
2023/07/14 01:47:05;;;;;;;;;;;;;;;22.73;43.30;101362.34;4180011;28;19925;-61
2023/07/14 01:49:13;;;;;;;;;;;;;;;22.72;43.24;101363.31;4178151;28;19928;-60
2023/07/14 01:51:15;;;;;;;;;;;;;;;22.71;43.31;101364.28;4180157;28;19967;-61
2023/07/14 01:53:26;;;;;;;;;;;;;;;22.71;43.29;101361.59;4180106;28;20043;-61
2023/07/14 01:55:32;;;;;;;;;;;;;;;22.70;43.36;101355.38;4180245;28;20011;-60
2023/07/14 01:57:34;;;;;;;;;;;;;;;22.70;43.44;101359.88;4179735;28;20314;-60
2023/07/14 01:59:38;;;;;;;;;;;;;;;22.69;43.50;101358.19;4178773;28;19932;-60
2023/07/14 02:01:41;;;;;;;;;;;;;;;22.68;43.04;101354.63;4178054;28;19921;-60
2023/07/14 02:03:47;;;;;;;;;;;;;;;22.68;43.27;101349.28;4163616;28;20009;-60
2023/07/14 02:05:49;;;;;;;;;;;;;;;22.67;43.32;101347.56;4163787;28;19921;-60
2023/07/14 02:07:52;;;;;;;;;;;;;;;22.67;43.21;101344.03;4163566;28;19921;-61
2023/07/14 02:09:53;;;;;;;;;;;;;;;22.67;43.49;101349.41;4162542;28;19939;-60
2023/07/14 02:11:58;;;;;;;;;;;;;;;22.65;43.33;101347.69;4163120;28;19921;-60
2023/07/14 02:14:00;;;;;;;;;;;;;;;22.64;43.63;101345.13;4163547;28;19921;-60
2023/07/14 02:16:02;;;;;;;;;;;;;;;22.63;43.45;101351.47;4164356;28;19921;-60
2023/07/14 02:18:04;;;;;;;;;;;;;;;22.62;43.29;101353.28;4166831;28;19967;-61
2023/07/14 02:20:10;;;;;;;;;;;;;;;22.62;43.50;101350.59;4165772;28;19921;-60
2023/07/14 02:22:12;;;;;;;;;;;;;;;22.62;43.62;101350.59;4166900;28;19947;-60
2023/07/14 02:24:19;;;;;;;;;;;;;;;22.61;43.36;101354.28;4166671;28;19956;-61
2023/07/14 02:26:27;;;;;;;;;;;;;;;22.60;43.31;101349.88;4166123;28;19921;-60
2023/07/14 02:28:29;;;;;;;;;;;;;;;22.58;43.32;101351.81;4166526;28;19921;-60
2023/07/14 02:30:33;;;;;;;;;;;;;;;22.59;43.55;101350.84;4165640;28;19921;-60
2023/07/14 02:32:39;;;;;;;;;;;;;;;22.48;43.38;101332.06;4166214;28;19925;-60
2023/07/14 02:34:45;;;;;;;;;;;;;;;22.57;43.69;101350.09;4148970;28;20424;-59
2023/07/14 02:36:57;;;;;;;;;;;;;;;22.56;43.75;101345.69;4166556;28;19921;-60
2023/07/14 02:39:01;;;;;;;;;;;;;;;22.56;43.78;101340.34;4176520;28;19921;-60
2023/07/14 02:41:07;;;;;;;;;;;;;;;22.57;43.48;101343.91;4182473;28;19982;-60
2023/07/14 02:43:10;;;;;;;;;;;;;;;22.56;43.44;101343.03;4182640;28;19920;-59
2023/07/14 02:45:15;;;;;;;;;;;;;;;22.55;43.58;101337.78;4182764;28;20003;-60
2023/07/14 02:47:20;;;;;;;;;;;;;;;22.55;43.82;101335.09;4181596;28;20385;-60
2023/07/14 02:49:22;;;;;;;;;;;;;;;22.53;43.91;101332.56;4182060;28;19927;-60
2023/07/14 02:51:23;;;;;;;;;;;;;;;22.54;43.89;101339.63;4164939;28;19927;-62
2023/07/14 02:53:25;;;;;;;;;;;;;;;22.52;43.83;101338.88;4182647;28;19921;-61
2023/07/14 02:55:26;;;;;;;;;;;;;;;22.53;43.65;101334.34;4182289;28;19921;-61
2023/07/14 02:57:28;;;;;;;;;;;;;;;22.51;43.96;101331.81;4182565;28;20011;-61
2023/07/14 02:59:29;;;;;;;;;;;;;;;22.49;43.81;101326.56;4181521;28;20019;-60
2023/07/14 03:01:32;;;;;;;;;;;;;;;22.51;44.06;101330.97;4163883;28;19921;-60
2023/07/14 03:03:36;;;;;;;;;;;;;;;22.49;43.81;101333.75;4149508;28;19925;-60
2023/07/14 03:05:38;;;;;;;;;;;;;;;22.50;43.68;101324.72;4131890;28;19944;-60
2023/07/14 03:07:40;;;;;;;;;;;;;;;22.49;43.74;101328.38;4149662;28;19921;-60
2023/07/14 03:09:41;;;;;;;;;;;;;;;22.47;44.24;101328.50;4148262;28;19941;-60
2023/07/14 03:11:44;;;;;;;;;;;;;;;22.48;44.17;101329.38;4149364;28;19936;-62
2023/07/14 03:13:46;;;;;;;;;;;;;;;22.46;44.19;101329.47;4149448;28;19928;-61
2023/07/14 03:15:48;;;;;;;;;;;;;;;22.46;44.19;101312.56;4149321;28;19928;-61
2023/07/14 03:17:49;;;;;;;;;;;;;;;22.43;44.01;101313.63;4149320;28;19976;-60
2023/07/14 03:19:51;;;;;;;;;;;;;;;22.43;44.10;101304.72;4148771;28;19979;-60
2023/07/14 03:21:52;;;;;;;;;;;;;;;22.44;44.27;101301.94;4149286;28;19921;-61
2023/07/14 03:23:54;;;;;;;;;;;;;;;22.44;44.26;101299.28;4149198;28;19926;-60
2023/07/14 03:26:01;;;;;;;;;;;;;;;22.43;43.97;101294.00;4149536;28;19967;-59
2023/07/14 03:28:03;;;;;;;;;;;;;;;22.42;44.15;101289.63;4147919;28;20004;-60
2023/07/14 03:30:05;;;;;;;;;;;;;;;22.42;44.34;101292.28;4148173;28;20443;-60
2023/07/14 03:32:11;;;;;;;;;;;;;;;22.41;44.15;101298.66;4149341;28;19964;-60
2023/07/14 03:34:12;;;;;;;;;;;;;;;22.42;44.37;101300.34;4149094;28;19997;-60
2023/07/14 03:36:16;;;;;;;;;;;;;;;22.42;44.21;101308.38;4149110;28;19926;-60
2023/07/14 03:38:19;;;;;;;;;;;;;;;22.41;43.98;101301.34;4160493;28;19921;-60
2023/07/14 03:40:21;;;;;;;;;;;;;;;22.40;44.10;101297.78;4181079;28;19986;-59
2023/07/14 03:42:22;;;;;;;;;;;;;;;22.39;44.08;101298.75;4181951;28;19921;-60
2023/07/14 03:44:24;;;;;;;;;;;;;;;22.40;44.16;101292.44;4182039;28;19955;-60
2023/07/14 03:46:26;;;;;;;;;;;;;;;22.39;44.41;101290.72;4181842;28;19920;-61
2023/07/14 03:48:28;;;;;;;;;;;;;;;22.37;44.02;101289.09;4181823;28;19921;-60
2023/07/14 03:50:30;;;;;;;;;;;;;;;22.37;44.29;101287.28;4180898;28;20296;-60
2023/07/14 03:52:31;;;;;;;;;;;;;;;22.38;44.43;101288.13;4181457;28;19967;-60
2023/07/14 03:54:33;;;;;;;;;;;;;;;22.38;44.22;101280.09;4181691;28;19921;-60
2023/07/14 03:56:34;;;;;;;;;;;;;;;22.37;44.31;101268.53;4181681;28;19924;-59
2023/07/14 03:58:38;;;;;;;;;;;;;;;22.36;44.54;101266.81;4181414;28;20387;-60
2023/07/14 04:00:40;;;;;;;;;;;;;;;22.35;44.70;101265.09;4180738;28;19956;-60
2023/07/14 04:02:42;;;;;;;;;;;;;;;22.34;44.70;101266.06;4171141;28;19921;-60
2023/07/14 04:04:48;;;;;;;;;;;;;;;22.34;44.68;101268.75;4165225;28;19974;-60
2023/07/14 04:06:50;;;;;;;;;;;;;;;22.35;44.33;101278.50;4164829;28;19928;-60
2023/07/14 04:08:55;;;;;;;;;;;;;;;22.34;44.29;101272.25;4164927;28;20376;-60
2023/07/14 04:10:56;;;;;;;;;;;;;;;22.34;44.21;101266.91;4164438;28;20392;-60
2023/07/14 04:12:59;;;;;;;;;;;;;;;22.33;44.58;101270.59;4165088;28;19932;-60
2023/07/14 04:15:00;;;;;;;;;;;;;;;22.34;44.57;101276.78;4164655;28;20000;-61
2023/07/14 04:17:07;;;;;;;;;;;;;;;22.34;44.42;101274.09;4164995;28;19959;-60
2023/07/14 04:19:13;;;;;;;;;;;;;;;22.33;44.43;101273.25;4164210;28;19948;-60
2023/07/14 04:21:15;;;;;;;;;;;;;;;22.33;44.46;101267.03;4164395;28;19925;-61
2023/07/14 04:23:17;;;;;;;;;;;;;;;22.33;44.55;101256.31;4164980;28;20008;-60
2023/07/14 04:25:19;;;;;;;;;;;;;;;22.30;44.64;101257.41;4164714;28;20388;-60
2023/07/14 04:27:26;;;;;;;;;;;;;;;22.33;44.48;101259.00;4164827;28;19921;-60
2023/07/14 04:29:32;;;;;;;;;;;;;;;22.33;44.65;101259.00;4163692;28;19941;-60
2023/07/14 04:31:39;;;;;;;;;;;;;;;22.30;44.23;101275.31;4164636;28;19921;-60
2023/07/14 04:33:45;;;;;;;;;;;;;;;22.30;44.85;101267.28;4164569;28;19949;-60
2023/07/14 04:35:51;;;;;;;;;;;;;;;22.29;44.53;101262.91;4164175;28;20322;-60
2023/07/14 04:37:52;;;;;;;;;;;;;;;22.29;44.42;101263.72;4166559;28;19927;-60
2023/07/14 04:39:54;;;;;;;;;;;;;;;22.29;44.57;101254.84;4179692;28;20423;-61
2023/07/14 04:42:00;;;;;;;;;;;;;;;22.28;44.54;101259.34;4180980;28;19920;-60
2023/07/14 04:44:13;;;;;;;;;;;;;;;22.28;44.61;101253.97;4180956;28;19924;-60
2023/07/14 04:46:15;;;;;;;;;;;;;;;22.29;44.91;101255.69;4180868;28;20306;-61
2023/07/14 04:48:17;;;;;;;;;;;;;;;22.30;44.87;101249.38;4180735;28;19921;-60
2023/07/14 04:50:19;;;;;;;;;;;;;;;22.28;44.80;101242.44;4179610;28;19921;-60
2023/07/14 04:52:21;;;;;;;;;;;;;;;22.25;44.78;101242.66;4180675;28;19921;-61
2023/07/14 04:54:23;;;;;;;;;;;;;;;22.24;44.66;101243.66;4180634;28;19964;-61
2023/07/14 04:56:26;;;;;;;;;;;;;;;22.23;44.88;101242.78;4180795;28;19929;-60
2023/07/14 04:58:27;;;;;;;;;;;;;;;22.24;44.73;101247.16;4180752;28;20405;-61
2023/07/14 05:00:29;;;;;;;;;;;;;;;22.24;44.74;101230.25;4179859;28;19921;-60
2023/07/14 05:02:30;;;;;;;;;;;;;;;22.26;44.63;101220.25;4171586;28;20304;-60
2023/07/14 05:04:38;;;;;;;;;;;;;;;22.27;44.61;101205.88;4164035;28;19925;-60
2023/07/14 05:07:00;;;;;;;;;;;;;;;22.26;44.68;101188.97;4164195;28;19921;-60
2023/07/14 05:09:02;;;;;;;;;;;;;;;22.23;45.01;101191.88;4146661;28;19921;-61
2023/07/14 05:11:04;;;;;;;;;;;;;;;22.22;44.98;101192.84;4163143;28;19921;-60
2023/07/14 05:13:07;;;;;;;;;;;;;;;22.21;44.67;101185.75;4164066;28;19921;-61
2023/07/14 05:15:12;;;;;;;;;;;;;;;22.20;44.94;101180.53;4164123;28;20016;-60
2023/07/14 05:17:14;;;;;;;;;;;;;;;22.19;45.00;101177.00;4163993;28;19928;-60
2023/07/14 05:19:15;;;;;;;;;;;;;;;22.20;44.89;101176.03;4163372;28;19924;-61
2023/07/14 05:21:17;;;;;;;;;;;;;;;22.18;44.86;101165.44;4163569;28;20307;-60
2023/07/14 05:23:19;;;;;;;;;;;;;;;22.18;44.72;101170.78;4146496;28;20388;-60
2023/07/14 05:25:20;;;;;;;;;;;;;;;22.23;44.86;101159.72;4163941;28;20285;-60
2023/07/14 05:27:22;;;;;;;;;;;;;;;22.20;44.95;101143.91;4164034;28;19921;-61
2023/07/14 05:29:23;;;;;;;;;;;;;;;22.18;44.91;101135.97;4163137;28;19925;-61
2023/07/14 05:31:25;;;;;;;;;;;;;;;22.16;44.80;101126.34;4163507;28;19935;-61
2023/07/14 05:33:26;;;;;;;;;;;;;;;22.14;44.88;101129.16;4163473;28;19990;-61
2023/07/14 05:35:28;;;;;;;;;;;;;;;22.16;44.92;101147.78;4163745;28;20323;-60
2023/07/14 05:37:30;;;;;;;;;;;;;;;22.13;44.87;101156.91;4163707;28;19928;-60
2023/07/14 05:39:31;;;;;;;;;;;;;;;22.15;45.11;101157.66;4147193;28;19921;-61
2023/07/14 05:41:33;;;;;;;;;;;;;;;22.14;44.98;101155.94;4147153;28;19959;-61
2023/07/14 05:43:34;;;;;;;;;;;;;;;22.04;45.21;101135.34;4147334;28;19929;-61
2023/07/14 05:45:36;;;;;;;;;;;;;;;22.16;45.09;101158.47;4147537;28;19976;-60
2023/07/14 05:47:40;;;;;;;;;;;;;;;22.16;45.36;101171.88;4147235;28;19968;-60
2023/07/14 05:49:42;;;;;;;;;;;;;;;22.16;45.06;101171.88;4146333;28;19925;-61
2023/07/14 05:51:43;;;;;;;;;;;;;;;22.16;45.40;101172.75;4149124;28;20368;-61
2023/07/14 05:53:45;;;;;;;;;;;;;;;22.14;45.30;101171.13;4150544;28;19960;-60
2023/07/14 05:55:47;;;;;;;;;;;;;;;22.15;45.31;101168.38;4151073;28;20332;-60
2023/07/14 05:57:49;;;;;;;;;;;;;;;22.17;45.49;101160.19;4150631;28;19922;-61
2023/07/14 05:59:51;;;;;;;;;;;;;;;22.16;45.50;101148.63;4149577;28;19932;-60
2023/07/14 06:01:53;;;;;;;;;;;;;;;22.14;45.30;101131.81;4154330;28;19921;-60
2023/07/14 06:03:55;;;;;;;;;;;;;;;22.15;45.41;101156.78;4166575;28;19921;-60
2023/07/14 06:05:57;;;;;;;;;;;;;;;22.13;45.29;101151.53;4167081;28;19925;-61
2023/07/14 06:07:59;;;;;;;;;;;;;;;22.14;45.51;101145.22;4166795;28;19927;-61
2023/07/14 06:10:00;;;;;;;;;;;;;;;22.12;45.10;101147.16;4166119;28;19943;-60
2023/07/14 06:12:04;;;;;;;;;;;;;;;22.12;45.42;101138.28;4166930;28;20265;-60
2023/07/14 06:14:05;;;;;;;;;;;;;;;22.13;45.20;101135.47;4166760;28;19921;-60
2023/07/14 06:16:07;;;;;;;;;;;;;;;22.13;45.19;101150.69;4166850;28;19929;-61
2023/07/14 06:18:08;;;;;;;;;;;;;;;22.11;44.93;101145.44;4166257;28;19965;-60
2023/07/14 06:20:15;;;;;;;;;;;;;;;22.10;44.92;101148.25;4165661;28;19921;-60
2023/07/14 06:22:16;;;;;;;;;;;;;;;22.10;45.08;101148.25;4166742;28;19967;-60
2023/07/14 06:24:18;;;;;;;;;;;;;;;22.11;45.01;101150.81;4166550;28;19960;-60
2023/07/14 06:26:19;;;;;;;;;;;;;;;22.12;44.98;101155.19;4166477;28;20406;-61
2023/07/14 06:28:21;;;;;;;;;;;;;;;22.12;44.81;101155.19;4166741;28;20398;-61
2023/07/14 06:30:27;;;;;;;;;;;;;;;22.13;44.87;101156.91;4165669;28;19943;-60
2023/07/14 06:32:32;;;;;;;;;;;;;;;22.12;44.88;101157.03;4166278;28;20011;-61
2023/07/14 06:34:33;;;;;;;;;;;;;;;22.10;45.00;101151.81;4166620;28;20330;-61
2023/07/14 06:36:35;;;;;;;;;;;;;;;22.09;44.93;101144.72;4166641;28;19944;-61
2023/07/14 06:38:36;;;;;;;;;;;;;;;22.12;44.93;101139.13;4174271;28;20302;-61
2023/07/14 06:40:38;;;;;;;;;;;;;;;22.13;44.86;101124.75;4181882;28;20470;-61
2023/07/14 06:42:42;;;;;;;;;;;;;;;22.13;44.60;101113.19;4183084;28;19972;-59
2023/07/14 06:44:44;;;;;;;;;;;;;;;22.15;44.87;101114.78;4182895;28;19920;-61
2023/07/14 06:46:45;;;;;;;;;;;;;;;22.15;44.41;101103.19;4182713;28;19921;-61
2023/07/14 06:48:47;;;;;;;;;;;;;;;22.14;44.66;101109.53;4182732;28;20395;-64
2023/07/14 06:50:49;;;;;;;;;;;;;;;22.15;44.69;101111.22;4181946;28;19920;-61
2023/07/14 06:52:51;;;;;;;;;;;;;;;22.13;44.74;101108.69;4182572;28;19943;-63
2023/07/14 06:54:58;;;;;;;;;;;;;;;22.13;44.60;101099.81;4182613;28;19928;-61
2023/07/14 06:56:59;;;;;;;;;;;;;;;22.12;44.48;101104.28;4182637;28;20015;-60
2023/07/14 06:59:02;;;;;;;;;;;;;;;22.14;44.45;101105.03;4182418;28;19924;-61
2023/07/14 07:01:03;;;;;;;;;;;;;;;22.14;44.52;101114.88;4181282;28;19921;-61
2023/07/14 07:03:05;;;;;;;;;;;;;;;22.14;44.55;101112.19;4167158;28;19972;-61
2023/07/14 07:05:12;;;;;;;;;;;;;;;22.13;44.48;101111.38;4166025;28;20398;-60
2023/07/14 07:07:18;;;;;;;;;;;;;;;22.15;44.33;101106.75;4166011;28;19928;-61
2023/07/14 07:09:20;;;;;;;;;;;;;;;22.13;44.36;101111.38;4166005;28;20004;-61
2023/07/14 07:11:21;;;;;;;;;;;;;;;22.14;44.42;101106.84;4165063;28;19968;-62
2023/07/14 07:13:23;;;;;;;;;;;;;;;22.14;44.39;101094.31;4165836;28;19928;-61
2023/07/14 07:15:24;;;;;;;;;;;;;;;22.15;44.15;101101.38;4165752;28;19928;-60
2023/07/14 07:17:31;;;;;;;;;;;;;;;22.15;44.28;101093.34;4166024;28;20019;-61
2023/07/14 07:19:32;;;;;;;;;;;;;;;22.18;44.02;101089.56;4165722;28;20368;-61
2023/07/14 07:21:34;;;;;;;;;;;;;;;22.18;43.93;101090.41;4165093;28;20371;-61
2023/07/14 07:23:36;;;;;;;;;;;;;;;22.19;44.15;101083.25;4165805;28;19930;-61
2023/07/14 07:25:37;;;;;;;;;;;;;;;22.20;43.98;101084.09;4165739;28;20304;-60
2023/07/14 07:27:44;;;;;;;;;;;;;;;22.21;43.93;101086.63;4165612;28;20380;-62
2023/07/14 07:29:50;;;;;;;;;;;;;;;22.21;43.93;101073.25;4164703;28;20303;-60
2023/07/14 07:31:52;;;;;;;;;;;;;;;22.21;44.13;101075.09;4165245;28;19968;-60
2023/07/14 07:33:54;;;;;;;;;;;;;;;22.21;43.94;101073.25;4165574;28;20018;-60
2023/07/14 07:35:56;;;;;;;;;;;;;;;22.23;43.91;101073.13;4165583;28;19940;-60
2023/07/14 07:37:59;;;;;;;;;;;;;;;22.25;43.78;101077.41;4165372;28;20000;-61
2023/07/14 07:40:02;;;;;;;;;;;;;;;22.25;43.80;101074.72;4164589;28;20007;-60
2023/07/14 07:42:07;;;;;;;;;;;;;;;22.25;43.80;101074.72;4165390;28;20337;-61
2023/07/14 07:44:09;;;;;;;;;;;;;;;22.27;43.98;101072.78;4165252;28;19927;-61
2023/07/14 07:46:11;;;;;;;;;;;;;;;22.26;43.79;101079.09;4165428;28;20391;-61
2023/07/14 07:48:13;;;;;;;;;;;;;;;22.26;43.78;101079.09;4165399;28;20410;-60
2023/07/14 07:50:15;;;;;;;;;;;;;;;22.27;43.88;101069.22;4164712;28;19975;-60
2023/07/14 07:52:16;;;;;;;;;;;;;;;22.25;43.64;101069.38;4165164;28;20392;-60
2023/07/14 07:54:21;;;;;;;;;;;;;;;22.26;43.84;101051.44;4165363;28;20322;-60
2023/07/14 07:56:22;;;;;;;;;;;;;;;22.26;43.90;101056.81;4165366;28;20372;-60
2023/07/14 07:58:24;;;;;;;;;;;;;;;22.28;43.84;101052.19;4164903;28;20366;-60
2023/07/14 08:00:26;;;;;;;;;;;;;;;22.26;43.59;101044.28;4164463;28;19921;-60
2023/07/14 08:02:28;;;;;;;;;;;;;;;22.29;43.34;101041.34;4165074;28;19925;-60
2023/07/14 08:04:29;;;;;;;;;;;;;;;22.28;43.52;101034.28;4165132;28;19932;-61
2023/07/14 08:06:31;;;;;;;;;;;;;;;22.30;43.44;101031.50;4165179;28;20284;-60
2023/07/14 08:08:33;;;;;;;;;;;;;;;22.30;43.59;101036.84;4164919;28;19937;-61
2023/07/14 08:10:39;;;;;;;;;;;;;;;22.30;43.47;101031.50;4146936;28;19963;-61
2023/07/14 08:12:43;;;;;;;;;;;;;;;22.30;43.16;101028.81;4164910;28;19975;-60
2023/07/14 08:14:54;;;;;;;;;;;;;;;22.30;43.29;101028.81;4163724;28;19921;-60
2023/07/14 08:16:56;;;;;;;;;;;;;;;22.32;43.43;101024.16;4164837;28;19972;-60
2023/07/14 08:18:59;;;;;;;;;;;;;;;22.33;42.97;101023.19;4164954;28;19928;-60
2023/07/14 08:21:01;;;;;;;;;;;;;;;22.36;43.02;101025.63;4163957;28;20387;-60
2023/07/14 08:23:04;;;;;;;;;;;;;;;22.40;43.15;101023.59;4164924;28;19960;-59
2023/07/14 08:25:07;;;;;;;;;;;;;;;22.42;43.02;101021.63;4164558;28;20355;-61
2023/07/14 08:27:08;;;;;;;;;;;;;;;22.42;43.18;101029.66;4164549;28;20024;-61
2023/07/14 08:29:10;;;;;;;;;;;;;;;22.42;42.52;101026.97;4164759;28;19921;-61
2023/07/14 08:31:12;;;;;;;;;;;;;;;22.41;42.66;101026.13;4163584;28;19923;-61
2023/07/14 08:33:14;;;;;;;;;;;;;;;22.44;42.39;101030.38;4164578;28;19927;-61
2023/07/14 08:35:16;;;;;;;;;;;;;;;22.46;42.56;101023.94;4164357;28;20331;-61
2023/07/14 08:37:18;;;;;;;;;;;;;;;22.45;42.81;101024.06;4164770;28;20319;-61
2023/07/14 08:39:20;;;;;;;;;;;;;;;22.45;42.63;101024.06;4178641;28;20367;-61
2023/07/14 08:41:28;;;;;;;;;;;;;;;22.46;42.41;101015.88;4180194;28;20020;-60
2023/07/14 08:43:48;;;;;;;;;;;;;;;22.46;42.48;101015.88;4162793;28;19921;-61
2023/07/14 08:45:55;;;;;;;;;;;;;;;22.46;42.43;101007.00;4181103;28;20003;-61
2023/07/14 08:48:15;;;;;;;;;;;;;;;22.47;42.54;101003.34;4181077;28;19921;-60
2023/07/14 08:50:20;;;;;;;;;;;;;;;22.46;42.69;100999.81;4179908;28;20376;-60
2023/07/14 08:52:30;;;;;;;;;;;;;;;22.49;42.85;101001.38;4180654;28;19928;-60
2023/07/14 08:54:43;;;;;;;;;;;;;;;22.52;42.53;100995.78;4180883;28;19927;-60
2023/07/14 08:56:45;;;;;;;;;;;;;;;22.55;42.36;100984.78;4180735;28;19953;-59
2023/07/14 08:58:48;;;;;;;;;;;;;;;22.56;42.30;100980.31;4180682;28;20311;-60
2023/07/14 09:00:50;;;;;;;;;;;;;;;22.58;41.96;100981.88;4180099;28;20362;-60
2023/07/14 09:03:03;;;;;;;;;;;;;;;22.59;42.18;100969.31;4169003;28;20281;-60
2023/07/14 09:05:11;;;;;;;;;;;;;;;22.62;41.80;100961.88;4164261;28;19921;-60
2023/07/14 09:07:16;;;;;;;;;;;;;;;22.65;41.58;100956.25;4164155;28;19943;-62
2023/07/14 09:09:50;;;;;;;;;;;;;;;22.66;41.49;100959.78;4164226;28;19925;-60
2023/07/14 09:11:58;;;;;;;;;;;;;;;22.70;41.69;100955.88;4080563;29;19958;-61
2023/07/14 09:14:09;;;;;;;;;;;;;;;22.74;41.01;100957.31;4081757;29;19922;-60
2023/07/14 09:16:11;;;;;;;;;;;;;;;22.76;40.73;100949.13;4081596;29;19923;-61
2023/07/14 09:18:21;;;;;;;;;;;;;;;22.79;40.82;100949.72;4081667;29;19926;-61
2023/07/14 09:20:22;;;;;;;;;;;;;;;22.82;40.63;100945.97;4080727;29;19923;-61
2023/07/14 09:22:50;;;;;;;;;;;;;;;22.82;39.83;100948.66;4081705;29;19958;-61
2023/07/14 09:25:10;;;;;;;;;;;;;;;22.85;39.33;100945.69;4035117;29;20517;-60
2023/07/14 09:27:21;;;;;;;;;;;;;;;22.87;39.24;100940.19;4034609;29;19924;-60
2023/07/14 09:29:36;;;;;;;;;;;;;;;22.89;39.28;100938.25;4034798;29;20292;-59
2023/07/14 09:31:44;;;;;;;;;;;;;;;22.91;39.63;100937.13;4033801;29;20440;-60
2023/07/14 09:33:53;;;;;;;;;;;;;;;22.88;38.78;100932.03;4034861;29;19967;-58
2023/07/14 09:35:55;;;;;;;;;;;;;;;22.91;38.26;100930.94;4034760;29;19973;-58
2023/07/14 09:37:59;;;;;;;;;;;;;;;22.93;38.88;100923.56;4034501;29;19934;-60
2023/07/14 09:40:09;;;;;;;;;;;;;;;22.94;38.93;100926.16;4034447;29;20429;-60
2023/07/14 09:42:16;;;;;;;;;;;;;;;22.97;38.17;100915.16;4034327;29;20010;-60
2023/07/14 09:44:19;;;;;;;;;;;;;;;23.03;38.18;100921.00;4034668;29;19983;-61
2023/07/14 09:46:20;;;;;;;;;;;;;;;23.07;38.47;100915.22;4034687;29;19987;-59
2023/07/14 09:48:30;;;;;;;;;;;;;;;23.11;38.58;100905.06;4085696;29;20381;-59
2023/07/14 09:50:35;;;;;;;;;;;;;;;23.13;38.38;100893.22;4096595;29;19953;-60
2023/07/14 09:52:47;;;;;;;;;;;;;;;23.16;38.35;100902.00;4097182;29;19922;-59
2023/07/14 09:54:51;;;;;;;;;;;;;;;23.19;38.27;100891.88;4096516;29;20390;-59
2023/07/14 09:56:59;;;;;;;;;;;;;;;23.19;38.54;100891.03;4097385;29;19922;-60
2023/07/14 09:59:06;;;;;;;;;;;;;;;23.21;38.64;100883.69;4097065;29;19965;-58
2023/07/14 10:01:14;;;;;;;;;;;;;;;23.25;38.45;100890.50;4100469;28;20254;-60
2023/07/14 10:03:17;;;;;;;;;;;;;;;23.28;38.33;100884.84;4162050;28;19921;-59
2023/07/14 10:05:51;;;;;;;;;;;;;;;23.31;38.29;100881.91;4163743;28;19924;-60
2023/07/14 10:07:53;;;;;;;;;;;;;;;23.36;37.96;100879.66;4163309;28;19952;-59
2023/07/14 10:09:58;;;;;;;;;;;;;;;23.37;37.66;100873.31;4163046;28;19929;-60
2023/07/14 10:12:03;;;;;;;;;;;;;;;23.38;37.91;100866.09;4162720;28;19999;-60
2023/07/14 10:14:40;;;;;;;;;;;;;;;23.39;37.54;100865.13;4163504;28;19975;-59
2023/07/14 10:16:44;;;;;;;;;;;;;;;23.42;37.73;100856.81;4081168;29;19923;-59
2023/07/14 10:18:55;;;;;;;;;;;;;;;23.45;37.35;100860.09;4081184;29;20318;-59
2023/07/14 10:21:06;;;;;;;;;;;;;;;23.46;36.91;100850.19;4080107;29;19978;-59
2023/07/14 10:23:17;;;;;;;;;;;;;;;23.46;36.80;100847.50;4081385;29;20373;-58
2023/07/14 10:25:21;;;;;;;;;;;;;;;23.47;37.36;100849.22;4081259;29;19949;-59
2023/07/14 10:27:30;;;;;;;;;;;;;;;23.48;37.04;100844.72;4081208;29;19922;-60
2023/07/14 10:29:49;;;;;;;;;;;;;;;23.49;36.87;100832.97;4081210;29;19967;-59
2023/07/14 10:32:00;;;;;;;;;;;;;;;23.49;36.21;100832.97;4080241;29;20019;-58
2023/07/14 10:34:02;;;;;;;;;;;;;;;23.50;35.96;100837.34;4081128;29;19926;-59
2023/07/14 10:36:13;;;;;;;;;;;;;;;23.50;36.35;100829.28;4080955;29;19923;-59
2023/07/14 10:38:26;;;;;;;;;;;;;;;23.44;36.69;100828.84;4078257;29;19934;-59